Time;durP1;ratioP1;P1;durP2;ratioP2;P2;SDS_P1;SDS_P2;PMS_P1;PMS_P2;Temp;Humidity;BMP_temperature;BMP_pressure;BME280_temperature;BME280_humidity;BME280_pressure;Samples;Min_cycle;Max_cycle;Signal;HPM_P1;HPM_P2
2021/12/07 00:02:24;;;;;;;1.73;1.33;;;17.50;47.90;;;;;;5089065;28;46232;-77
2021/12/07 00:04:50;;;;;;;1.30;1.10;;;17.50;47.70;;;;;;5092755;27;45226;-76
2021/12/07 00:07:18;;;;;;;1.52;1.10;;;17.50;47.40;;;;;;5087780;28;45408;-76
2021/12/07 00:09:49;;;;;;;1.10;1.00;;;17.50;47.40;;;;;;5086532;28;45525;-76
2021/12/07 00:12:16;;;;;;;1.48;1.10;;;17.50;47.50;;;;;;5089929;28;46769;-76
2021/12/07 00:14:44;;;;;;;1.42;1.00;;;17.40;47.50;;;;;;5088809;28;45524;-76
2021/12/07 00:17:12;;;;;;;1.95;0.75;;;17.40;47.50;;;;;;5087908;28;45326;-76
2021/12/07 00:19:39;;;;;;;1.35;0.85;;;17.40;47.40;;;;;;5089458;28;45228;-76
2021/12/07 00:22:08;;;;;;;0.90;0.80;;;17.40;47.50;;;;;;5085594;28;48039;-77
2021/12/07 00:24:35;;;;;;;1.08;0.80;;;17.40;47.20;;;;;;5088947;28;45324;-77
2021/12/07 00:27:03;;;;;;;0.95;0.80;;;17.40;47.40;;;;;;5096506;27;45245;-77
2021/12/07 00:29:31;;;;;;;0.60;0.57;;;17.40;47.60;;;;;;5088364;28;45389;-77
2021/12/07 00:32:16;;;;;;;1.38;0.82;;;17.40;47.50;;;;;;5089139;28;45405;-77
2021/12/07 00:34:58;;;;;;;0.65;0.55;;;17.40;47.30;;;;;;5088313;27;45686;-76
2021/12/07 00:37:27;;;;;;;0.90;0.63;;;17.40;47.40;;;;;;5081791;28;45171;-76
2021/12/07 00:39:54;;;;;;;1.00;0.70;;;17.40;47.70;;;;;;5086136;28;45240;-76
2021/12/07 00:42:23;;;;;;;0.50;0.50;;;17.40;47.80;;;;;;5088707;28;47423;-76
2021/12/07 00:44:50;;;;;;;1.15;0.65;;;17.40;47.50;;;;;;5088414;27;45186;-76
2021/12/07 00:47:18;;;;;;;0.57;0.50;;;17.40;47.50;;;;;;5087618;28;45210;-76
2021/12/07 00:49:45;;;;;;;0.77;0.55;;;17.40;47.50;;;;;;5089504;28;45213;-76
2021/12/07 00:52:12;;;;;;;0.50;0.50;;;17.40;47.60;;;;;;5095174;27;46626;-76
2021/12/07 00:54:40;;;;;;;0.50;0.50;;;17.40;47.70;;;;;;5088349;28;45219;-76
2021/12/07 00:57:07;;;;;;;0.40;0.40;;;17.40;47.60;;;;;;5100263;27;45230;-76
2021/12/07 00:59:35;;;;;;;0.60;0.60;;;17.40;47.40;;;;;;5084555;28;45201;-76
2021/12/07 01:02:03;;;;;;;1.20;0.73;;;17.40;47.50;;;;;;5078192;27;45251;-76
2021/12/07 01:04:31;;;;;;;0.70;0.70;;;17.40;47.50;;;;;;5089033;28;45165;-76
2021/12/07 01:07:05;;;;;;;0.70;0.60;;;17.40;47.70;;;;;;5082010;28;45379;-76
2021/12/07 01:09:40;;;;;;;0.60;0.60;;;17.30;47.60;;;;;;5068211;28;45531;-76
2021/12/07 01:25:55;;;;;;;1.20;1.00;;;17.30;48.10;;;;;;5070417;28;46160;-76
2021/12/07 01:28:28;;;;;;;0.90;0.90;;;17.30;48.20;;;;;;5088439;27;45110;-76
2021/12/07 01:31:01;;;;;;;1.10;0.90;;;17.30;48.40;;;;;;5089929;27;45296;-76
2021/12/07 01:33:55;;;;;;;0.93;0.70;;;17.30;48.50;;;;;;5087568;27;46663;-76
2021/12/07 01:45:06;;;;;;;1.48;1.10;;;17.40;48.70;;;;;;5088277;28;45776;-76
2021/12/07 01:47:46;;;;;;;1.05;0.82;;;17.30;48.80;;;;;;5068412;28;45252;-76
2021/12/07 01:50:30;;;;;;;1.92;0.93;;;17.30;48.90;;;;;;5076330;28;45491;-76
2021/12/07 01:53:12;;;;;;;1.13;1.02;;;17.40;49.10;;;;;;5080600;28;45385;-76
2021/12/07 02:01:10;;;;;;;1.55;1.08;;;17.30;49.00;;;;;;5084089;28;45195;-75
2021/12/07 02:03:39;;;;;;;1.50;1.25;;;17.30;49.10;;;;;;5087342;28;45089;-76
2021/12/07 02:06:07;;;;;;;1.67;1.00;;;17.30;49.10;;;;;;5091565;28;47566;-76
2021/12/07 02:08:33;;;;;;;3.35;1.30;;;17.30;49.10;;;;;;5091057;28;45243;-76
2021/12/07 02:11:02;;;;;;;1.75;1.30;;;17.30;49.30;;;;;;5090806;28;45324;-76
2021/12/07 02:16:16;;;;;;;1.48;1.17;;;17.30;49.20;;;;;;5090306;28;45146;-76
2021/12/07 02:18:44;;;;;;;1.40;1.02;;;17.30;49.20;;;;;;5090544;28;45393;-76
2021/12/07 02:21:20;;;;;;;3.60;1.40;;;17.30;49.30;;;;;;5075130;28;45393;-76
2021/12/07 02:23:48;;;;;;;1.80;1.33;;;17.30;49.30;;;;;;5086412;28;45265;-76
2021/12/07 02:26:15;;;;;;;3.20;1.25;;;17.30;49.40;;;;;;5090652;28;45457;-76
2021/12/07 02:28:42;;;;;;;3.17;1.23;;;17.30;49.50;;;;;;5090306;28;45608;-76
2021/12/07 02:31:10;;;;;;;2.58;1.20;;;17.30;49.50;;;;;;5090901;28;45278;-76
2021/12/07 02:33:37;;;;;;;2.17;1.30;;;17.40;49.70;;;;;;5090021;28;45444;-76
2021/12/07 02:36:05;;;;;;;2.13;1.23;;;17.40;49.50;;;;;;5089945;28;47093;-76
2021/12/07 02:38:34;;;;;;;1.60;1.02;;;17.40;49.60;;;;;;5090067;28;45337;-76
2021/12/07 02:41:01;;;;;;;2.25;1.45;;;17.40;49.30;;;;;;5091124;28;45340;-76
2021/12/07 02:43:28;;;;;;;2.53;1.40;;;17.40;49.20;;;;;;5090126;28;45596;-76
2021/12/07 02:45:55;;;;;;;1.70;1.33;;;17.40;49.10;;;;;;5090813;28;45268;-76
2021/12/07 02:48:22;;;;;;;2.45;1.20;;;17.40;49.20;;;;;;5090671;28;45331;-76
2021/12/07 02:50:51;;;;;;;3.22;1.23;;;17.40;49.10;;;;;;5088138;28;45200;-76
2021/12/07 02:53:21;;;;;;;1.77;1.20;;;17.40;49.40;;;;;;5086206;28;45231;-76
2021/12/07 02:55:49;;;;;;;2.30;1.35;;;17.40;49.40;;;;;;5089665;28;48001;-76
2021/12/07 02:58:16;;;;;;;2.05;1.50;;;17.40;49.50;;;;;;5090154;28;45267;-76
2021/12/07 03:00:49;;;;;;;1.80;1.20;;;17.40;49.50;;;;;;5089184;28;45277;-76
2021/12/07 03:03:17;;;;;;;2.53;1.48;;;17.40;49.60;;;;;;5087793;28;45504;-76
2021/12/07 03:05:50;;;;;;;1.88;1.10;;;17.40;49.60;;;;;;5090371;28;47737;-76
2021/12/07 03:27:46;;;;;;;2.67;1.23;;;17.40;49.70;;;;;;5060321;28;46253;-76
2021/12/07 03:30:13;;;;;;;2.45;1.20;;;17.40;50.00;;;;;;5088887;28;45342;-76
2021/12/07 03:32:40;;;;;;;4.43;1.50;;;17.40;49.90;;;;;;5102324;27;45380;-76
2021/12/07 03:35:08;;;;;;;5.05;1.27;;;17.40;49.90;;;;;;5097251;27;45137;-76
2021/12/07 03:37:35;;;;;;;3.08;1.50;;;17.40;49.60;;;;;;5084443;28;48215;-76
2021/12/07 03:40:02;;;;;;;2.53;1.23;;;17.40;49.90;;;;;;5089515;28;45669;-76
2021/12/07 03:42:29;;;;;;;3.10;1.25;;;17.40;49.70;;;;;;5089508;28;45369;-76
2021/12/07 03:44:57;;;;;;;3.60;1.50;;;17.40;49.70;;;;;;5089910;28;45177;-76
2021/12/07 03:47:24;;;;;;;3.25;1.30;;;17.40;49.90;;;;;;5088831;28;48527;-76
2021/12/07 03:49:51;;;;;;;2.90;1.10;;;17.40;49.70;;;;;;5088738;28;45203;-76
2021/12/07 03:52:18;;;;;;;3.50;1.38;;;17.40;49.70;;;;;;5087949;28;45317;-76
2021/12/07 03:54:45;;;;;;;3.38;1.20;;;17.40;49.70;;;;;;5089491;28;45241;-76
2021/12/07 03:57:12;;;;;;;2.95;1.00;;;17.40;49.60;;;;;;5078763;28;46687;-76
2021/12/07 03:59:38;;;;;;;2.60;1.13;;;17.40;49.70;;;;;;5085952;28;45183;-76
2021/12/07 04:02:07;;;;;;;2.78;1.25;;;17.40;49.50;;;;;;5087981;28;45230;-76
2021/12/07 04:04:34;;;;;;;2.70;1.33;;;17.30;49.50;;;;;;5089348;28;45242;-76
2021/12/07 04:07:01;;;;;;;2.63;1.10;;;17.40;49.60;;;;;;5088676;28;47842;-76
2021/12/07 04:09:29;;;;;;;3.28;1.25;;;17.40;49.50;;;;;;5088911;28;45191;-76
2021/12/07 04:11:56;;;;;;;3.38;1.27;;;17.40;49.40;;;;;;5075939;27;45303;-77
2021/12/07 04:14:23;;;;;;;2.70;1.02;;;17.40;49.30;;;;;;5087814;28;45423;-77
2021/12/07 04:16:50;;;;;;;3.90;1.50;;;17.40;49.40;;;;;;5088075;28;46209;-76
2021/12/07 04:19:18;;;;;;;3.47;1.20;;;17.40;49.40;;;;;;5076750;27;45322;-76
2021/12/07 04:21:45;;;;;;;3.85;1.40;;;17.40;49.40;;;;;;5088410;28;45250;-76
2021/12/07 04:24:12;;;;;;;3.30;1.42;;;17.40;49.30;;;;;;5088049;28;45430;-76
2021/12/07 04:26:40;;;;;;;3.85;1.30;;;17.40;49.20;;;;;;5088366;28;47012;-76
2021/12/07 04:29:07;;;;;;;3.60;1.05;;;17.40;49.30;;;;;;5068304;28;45307;-76
2021/12/07 04:31:34;;;;;;;3.58;1.25;;;17.40;49.30;;;;;;5079627;28;45201;-76
2021/12/07 04:34:00;;;;;;;2.75;1.27;;;17.40;49.20;;;;;;5087093;28;45365;-76
2021/12/07 04:36:28;;;;;;;3.75;1.50;;;17.40;49.20;;;;;;5087398;28;47416;-76
2021/12/07 04:38:55;;;;;;;3.78;1.30;;;17.40;49.30;;;;;;5084782;28;45290;-76
2021/12/07 04:41:22;;;;;;;4.38;1.48;;;17.30;49.20;;;;;;5088026;28;45360;-76
2021/12/07 04:43:49;;;;;;;4.32;1.48;;;17.40;49.30;;;;;;5088711;28;45324;-77
2021/12/07 04:46:22;;;;;;;3.83;1.45;;;17.30;49.20;;;;;;5086659;28;46379;-77
2021/12/07 04:59:48;;;;;;;3.97;1.38;;;17.40;50.30;;;;;;5085239;28;45744;-76
2021/12/07 05:02:17;;;;;;;5.00;1.38;;;17.40;49.10;;;;;;5084567;27;45264;-76
2021/12/07 05:04:44;;;;;;;3.03;1.27;;;17.40;49.10;;;;;;5093177;27;45160;-76
2021/12/07 05:07:20;;;;;;;5.40;1.70;;;17.40;48.90;;;;;;5087576;27;46472;-76
2021/12/07 05:12:53;;;;;;;4.05;1.38;;;17.30;49.00;;;;;;5048538;27;45365;-76
2021/12/07 05:18:03;;;;;;;3.35;1.05;;;17.30;49.10;;;;;;5204822;22;45091;-75
2021/12/07 05:39:59;;;;;;;3.33;1.33;;;17.30;49.20;;;;;;5132508;27;44976;-76
2021/12/07 05:42:26;;;;;;;2.78;1.30;;;17.30;49.30;;;;;;5144932;27;44542;-77
2021/12/07 05:44:55;;;;;;;5.43;1.10;;;17.30;49.40;;;;;;5141845;27;44697;-77
2021/12/07 05:47:22;;;;;;;2.80;1.10;;;17.30;49.40;;;;;;5149251;27;44884;-77
2021/12/07 05:49:49;;;;;;;3.90;1.15;;;17.30;49.40;;;;;;5145510;27;45508;-77
2021/12/07 05:52:17;;;;;;;3.95;1.50;;;17.30;49.40;;;;;;5144347;27;44750;-77
2021/12/07 05:54:43;;;;;;;4.55;1.42;;;17.30;49.30;;;;;;5140628;27;44790;-77
2021/12/07 05:57:12;;;;;;;3.20;1.30;;;17.30;49.20;;;;;;5145269;27;44748;-77
2021/12/07 05:59:38;;;;;;;4.00;1.38;;;17.30;49.20;;;;;;5142365;27;46888;-76
2021/12/07 06:02:05;;;;;;;2.65;1.08;;;17.30;50.30;;;;;;5148215;27;44790;-76
2021/12/07 06:04:33;;;;;;;4.05;1.65;;;17.20;49.40;;;;;;5141693;27;44825;-76
2021/12/07 06:07:00;;;;;;;4.35;0.90;;;17.20;49.20;;;;;;5148113;27;44777;-76
2021/12/07 06:09:27;;;;;;;2.47;1.35;;;17.30;49.50;;;;;;5151198;27;45185;-76
2021/12/07 06:11:54;;;;;;;4.53;1.25;;;17.20;49.80;;;;;;5145903;27;44920;-76
2021/12/07 06:14:29;;;;;;;2.25;0.90;;;17.20;50.50;;;;;;5151514;27;44652;-76
2021/12/07 06:16:57;;;;;;;2.90;1.00;;;17.20;50.80;;;;;;5146322;27;45105;-76
2021/12/07 06:19:24;;;;;;;2.70;1.10;;;17.20;51.00;;;;;;5148094;27;46681;-76
2021/12/07 06:21:51;;;;;;;3.33;1.40;;;17.20;50.50;;;;;;5150637;27;45189;-79
2021/12/07 06:24:18;;;;;;;3.63;1.42;;;17.20;50.30;;;;;;5144707;27;44733;-75
2021/12/07 06:26:45;;;;;;;4.05;1.27;;;17.20;49.60;;;;;;5142053;27;44797;-75
2021/12/07 06:29:13;;;;;;;2.22;1.13;;;17.30;49.90;;;;;;5141053;27;46285;-76
2021/12/07 06:31:41;;;;;;;6.88;1.42;;;17.30;50.60;;;;;;5148531;27;44725;-75
2021/12/07 06:34:10;;;;;;;5.47;1.15;;;17.30;51.00;;;;;;5146797;27;44991;-75
2021/12/07 06:36:37;;;;;;;3.83;1.50;;;17.40;51.30;;;;;;5142853;27;44675;-75
2021/12/07 06:39:04;;;;;;;2.83;1.10;;;17.40;50.90;;;;;;5147029;27;46317;-76
2021/12/07 06:41:31;;;;;;;3.17;1.20;;;17.40;50.30;;;;;;5151314;27;44699;-76
2021/12/07 06:43:57;;;;;;;3.75;1.48;;;17.40;50.10;;;;;;5144430;27;45512;-75
2021/12/07 06:46:24;;;;;;;2.72;1.30;;;17.40;49.90;;;;;;5142299;27;44797;-75
2021/12/07 06:48:53;;;;;;;3.97;1.15;;;17.40;50.00;;;;;;5141585;27;45256;-75
2021/12/07 06:51:20;;;;;;;2.58;1.08;;;17.40;50.30;;;;;;5146100;27;44892;-75
2021/12/07 06:53:47;;;;;;;1.85;0.98;;;17.40;50.60;;;;;;5145150;27;45259;-75
2021/12/07 06:56:14;;;;;;;2.33;1.10;;;17.40;50.70;;;;;;5153478;27;44811;-75
2021/12/07 06:58:41;;;;;;;3.50;1.27;;;17.40;50.90;;;;;;5152327;27;46425;-76
2021/12/07 07:01:11;;;;;;;3.65;1.15;;;17.50;51.20;;;;;;5154747;27;44734;-76
2021/12/07 07:03:40;;;;;;;3.72;1.10;;;17.50;51.20;;;;;;5154195;27;44680;-76
2021/12/07 07:06:09;;;;;;;1.17;1.00;;;17.50;51.70;;;;;;5153744;27;44928;-76
2021/12/07 07:08:36;;;;;;;3.63;1.10;;;17.40;51.40;;;;;;5153722;27;45194;-76
2021/12/07 07:11:04;;;;;;;2.60;1.10;;;17.40;51.40;;;;;;5154053;27;44730;-76
2021/12/07 07:13:31;;;;;;;1.70;0.82;;;17.40;51.20;;;;;;5154820;27;44675;-76
2021/12/07 07:15:59;;;;;;;4.22;1.13;;;17.40;52.50;;;;;;5155912;27;44791;-76
2021/12/07 07:18:26;;;;;;;2.45;1.20;;;17.40;51.50;;;;;;5154345;27;46869;-76
2021/12/07 07:20:55;;;;;;;2.75;1.23;;;17.40;51.30;;;;;;5153012;27;45159;-76
2021/12/07 07:23:24;;;;;;;3.40;1.10;;;17.40;51.30;;;;;;5154142;27;44610;-76
2021/12/07 07:25:55;;;;;;;2.15;0.98;;;17.40;51.20;;;;;;5152868;27;44800;-77
2021/12/07 07:28:23;;;;;;;2.25;1.00;;;17.40;51.60;;;;;;5155081;27;47594;-77
2021/12/07 07:30:49;;;;;;;2.58;1.00;;;17.40;51.60;;;;;;5152660;27;44681;-77
2021/12/07 07:33:16;;;;;;;2.67;0.90;;;17.40;51.60;;;;;;5145941;27;44777;-77
2021/12/07 07:35:43;;;;;;;1.95;0.85;;;17.40;51.60;;;;;;5149701;27;44863;-76
2021/12/07 07:38:11;;;;;;;1.98;1.02;;;17.40;51.80;;;;;;5151000;27;45195;-76
2021/12/07 07:40:39;;;;;;;2.58;1.05;;;17.40;51.60;;;;;;5144915;27;44817;-76
2021/12/07 07:43:05;;;;;;;2.65;1.00;;;17.40;51.60;;;;;;5143060;27;44690;-76
2021/12/07 07:45:32;;;;;;;3.40;1.20;;;17.40;51.60;;;;;;5154871;27;44801;-76
2021/12/07 07:47:59;;;;;;;2.67;0.90;;;17.40;51.60;;;;;;5157535;27;45765;-76
2021/12/07 07:50:26;;;;;;;1.63;0.77;;;17.40;51.60;;;;;;5167017;27;44835;-77
2021/12/07 07:52:53;;;;;;;3.08;1.30;;;17.40;51.60;;;;;;5154076;27;44871;-77
2021/12/07 07:55:20;;;;;;;2.38;0.90;;;17.40;51.60;;;;;;5162905;27;44773;-77
2021/12/07 07:57:48;;;;;;;3.85;1.30;;;17.40;51.60;;;;;;5164850;27;46271;-77
2021/12/07 08:00:17;;;;;;;2.55;1.05;;;17.40;51.60;;;;;;5152346;27;45034;-77
2021/12/07 08:02:45;;;;;;;1.63;0.90;;;17.40;51.60;;;;;;5153188;27;44674;-77
2021/12/07 08:05:13;;;;;;;2.97;1.02;;;17.40;51.60;;;;;;5152839;27;44711;-77
2021/12/07 08:07:40;;;;;;;3.15;1.00;;;17.40;51.60;;;;;;5148842;27;47258;-77
2021/12/07 08:10:09;;;;;;;3.38;1.08;;;17.40;51.60;;;;;;5147763;27;45264;-77
2021/12/07 08:12:36;;;;;;;2.20;1.10;;;17.40;51.60;;;;;;5148941;27;46462;-77
2021/12/07 08:15:05;;;;;;;2.10;1.00;;;17.30;51.50;;;;;;5164330;27;44908;-77
2021/12/07 08:17:33;;;;;;;2.72;0.88;;;17.30;52.70;;;;;;5155831;27;45420;-77
2021/12/07 08:19:59;;;;;;;1.15;0.80;;;17.40;51.60;;;;;;5151481;27;44995;-77
2021/12/07 08:22:28;;;;;;;1.67;0.77;;;17.40;51.60;;;;;;5152315;27;45040;-77
2021/12/07 08:24:55;;;;;;;2.80;1.20;;;17.40;51.60;;;;;;5151456;27;44844;-77
2021/12/07 08:27:22;;;;;;;2.28;0.85;;;17.40;51.60;;;;;;5152990;27;46426;-77
2021/12/07 08:29:49;;;;;;;1.35;0.77;;;17.40;51.60;;;;;;5146873;27;44630;-77
2021/12/07 08:32:17;;;;;;;1.58;0.80;;;17.40;51.60;;;;;;5143337;27;44643;-77
2021/12/07 08:34:44;;;;;;;2.45;0.90;;;17.40;51.60;;;;;;5144818;27;44864;-77
2021/12/07 08:37:11;;;;;;;2.83;1.05;;;17.40;51.60;;;;;;5150149;27;46668;-77
2021/12/07 08:39:38;;;;;;;2.80;0.95;;;17.40;51.60;;;;;;5150483;27;44660;-77
2021/12/07 08:42:06;;;;;;;2.45;1.00;;;17.40;51.60;;;;;;5150393;27;44680;-77
2021/12/07 08:44:33;;;;;;;2.78;0.70;;;17.40;51.60;;;;;;5150181;27;44761;-77
2021/12/07 08:47:00;;;;;;;2.80;1.00;;;17.40;51.20;;;;;;5140981;27;46881;-77
2021/12/07 08:49:28;;;;;;;3.38;1.25;;;17.40;50.90;;;;;;5152756;27;44578;-77
2021/12/07 08:51:55;;;;;;;1.95;0.90;;;17.40;51.10;;;;;;5152943;27;44672;-77
2021/12/07 08:54:33;;;;;;;1.67;0.88;;;17.40;51.30;;;;;;5152600;27;44732;-77
2021/12/07 08:59:45;;;;;;;1.40;0.68;;;17.40;51.20;;;;;;5149994;27;44689;-77
2021/12/07 09:02:15;;;;;;;3.25;1.23;;;17.40;51.40;;;;;;5152073;27;44930;-77
2021/12/07 09:04:43;;;;;;;1.92;1.00;;;17.30;51.50;;;;;;5151962;27;44890;-77
2021/12/07 09:07:11;;;;;;;4.05;1.20;;;17.30;51.20;;;;;;5150640;27;47024;-77
2021/12/07 09:09:38;;;;;;;2.25;0.88;;;17.40;51.50;;;;;;5150842;27;45155;-77
2021/12/07 09:12:06;;;;;;;1.58;0.90;;;17.40;51.60;;;;;;5153092;27;45091;-77
2021/12/07 09:14:33;;;;;;;1.85;1.00;;;17.40;51.60;;;;;;5152314;27;44797;-77
2021/12/07 09:17:00;;;;;;;3.22;1.10;;;17.40;51.60;;;;;;5150882;27;45253;-77
2021/12/07 09:19:27;;;;;;;1.35;0.70;;;17.40;51.60;;;;;;5152062;27;44550;-77
2021/12/07 09:21:55;;;;;;;2.35;0.80;;;17.40;51.60;;;;;;5151493;27;44623;-77
2021/12/07 09:24:23;;;;;;;3.42;1.13;;;17.40;51.60;;;;;;5149931;27;44815;-77
2021/12/07 09:26:54;;;;;;;2.47;0.90;;;17.40;51.60;;;;;;5151508;27;46416;-77
2021/12/07 09:29:21;;;;;;;3.53;1.10;;;17.40;51.60;;;;;;5151853;27;46010;-77
2021/12/07 09:31:48;;;;;;;2.70;1.05;;;17.40;51.60;;;;;;5151819;27;44766;-77
2021/12/07 09:34:16;;;;;;;3.67;1.30;;;17.40;51.60;;;;;;5152720;27;44678;-77
2021/12/07 09:36:43;;;;;;;1.88;0.90;;;17.40;51.60;;;;;;5151192;27;46618;-77
2021/12/07 09:39:14;;;;;;;3.45;1.30;;;17.40;51.60;;;;;;5151899;27;45085;-77
2021/12/07 09:41:41;;;;;;;2.58;0.90;;;17.40;51.60;;;;;;5152365;27;44673;-77
2021/12/07 09:44:09;;;;;;;3.30;1.10;;;17.40;51.60;;;;;;5153661;27;44792;-77
2021/12/07 09:46:37;;;;;;;2.63;1.00;;;17.40;51.60;;;;;;5152286;27;46385;-77
2021/12/07 09:49:06;;;;;;;2.55;1.20;;;17.40;51.60;;;;;;5152077;27;44652;-77
2021/12/07 09:51:33;;;;;;;2.85;1.02;;;17.40;51.90;;;;;;5152461;27;44568;-77
2021/12/07 09:54:01;;;;;;;1.98;1.00;;;17.40;52.10;;;;;;5155767;27;45011;-77
2021/12/07 09:56:30;;;;;;;3.38;1.35;;;17.40;52.60;;;;;;5149697;27;46586;-77
2021/12/07 09:58:59;;;;;;;3.75;1.00;;;17.40;52.60;;;;;;5150397;27;44615;-77
2021/12/07 10:01:27;;;;;;;1.58;0.88;;;17.40;52.90;;;;;;5151805;27;44940;-77
2021/12/07 10:03:54;;;;;;;2.15;1.10;;;17.40;52.90;;;;;;5151659;27;44936;-77
2021/12/07 10:06:22;;;;;;;2.13;1.02;;;17.40;52.70;;;;;;5150425;27;45455;-77
2021/12/07 10:08:50;;;;;;;2.35;1.00;;;17.40;52.50;;;;;;5131123;27;44547;-77
2021/12/07 10:11:18;;;;;;;2.55;1.02;;;17.40;52.90;;;;;;5144147;27;44688;-77
2021/12/07 10:13:50;;;;;;;2.30;0.98;;;17.40;53.30;;;;;;5148123;27;44844;-77
2021/12/07 10:16:19;;;;;;;1.42;0.82;;;17.40;53.30;;;;;;5162514;27;47345;-77
2021/12/07 10:18:47;;;;;;;1.35;0.88;;;17.40;53.40;;;;;;5153805;27;45299;-77
2021/12/07 10:21:17;;;;;;;3.28;1.17;;;17.50;53.50;;;;;;5154254;27;44626;-77
2021/12/07 10:23:45;;;;;;;2.08;0.98;;;17.40;53.50;;;;;;5155019;27;44851;-77
2021/12/07 10:26:16;;;;;;;2.10;0.90;;;17.50;53.60;;;;;;5153862;27;47030;-77
2021/12/07 10:28:46;;;;;;;3.20;1.08;;;17.50;53.60;;;;;;5154262;27;44970;-77
2021/12/07 10:31:26;;;;;;;1.17;0.80;;;17.50;53.60;;;;;;5154569;27;44591;-77
2021/12/07 10:33:58;;;;;;;2.25;0.88;;;17.50;53.80;;;;;;5151154;27;44722;-77
2021/12/07 10:36:29;;;;;;;2.75;1.00;;;17.50;53.90;;;;;;5153431;27;45473;-77
2021/12/07 10:39:00;;;;;;;1.90;0.85;;;17.50;53.90;;;;;;5153148;27;44673;-77
2021/12/07 10:41:28;;;;;;;4.40;1.17;;;17.50;53.90;;;;;;5155020;27;44786;-77
2021/12/07 10:44:01;;;;;;;3.47;1.13;;;17.50;53.90;;;;;;5155448;27;44731;-77
2021/12/07 10:46:51;;;;;;;4.25;1.15;;;17.50;54.00;;;;;;5153733;27;46817;-77
2021/12/07 10:49:34;;;;;;;2.03;0.82;;;17.50;54.00;;;;;;5154051;27;44545;-77
2021/12/07 10:52:12;;;;;;;3.08;1.00;;;17.50;53.90;;;;;;5153699;27;44657;-77
2021/12/07 10:54:43;;;;;;;2.33;1.00;;;17.50;53.80;;;;;;5155531;27;44619;-77
2021/12/07 10:57:15;;;;;;;2.15;0.90;;;17.50;54.00;;;;;;5153082;27;45463;-77
2021/12/07 10:59:51;;;;;;;2.40;0.90;;;17.50;54.10;;;;;;5153911;27;44924;-77
2021/12/07 11:02:19;;;;;;;3.20;1.00;;;17.50;54.10;;;;;;5148832;27;44838;-77
2021/12/07 11:04:48;;;;;;;2.05;0.90;;;17.50;54.20;;;;;;5155117;27;44793;-77
2021/12/07 11:07:19;;;;;;;1.98;0.90;;;17.50;54.30;;;;;;5154213;27;46428;-77
2021/12/07 11:09:58;;;;;;;2.25;0.90;;;17.50;54.10;;;;;;5141846;27;44701;-77
2021/12/07 11:12:26;;;;;;;2.70;0.68;;;17.50;54.00;;;;;;5154307;27;44886;-77
2021/12/07 11:14:57;;;;;;;3.55;0.82;;;17.50;53.90;;;;;;5153807;27;45010;-77
2021/12/07 11:17:26;;;;;;;3.45;1.00;;;17.50;53.70;;;;;;5152322;27;45602;-77
2021/12/07 11:19:54;;;;;;;1.65;0.85;;;17.50;53.70;;;;;;5153018;27;44689;-77
2021/12/07 11:22:24;;;;;;;1.88;0.90;;;17.50;53.70;;;;;;5154157;27;44868;-77
2021/12/07 11:24:53;;;;;;;2.90;0.77;;;17.50;53.70;;;;;;5153628;27;44597;-77
2021/12/07 11:30:10;;;;;;;1.88;0.70;;;17.50;53.70;;;;;;5153362;27;45003;-77
2021/12/07 11:32:41;;;;;;;2.42;0.90;;;17.50;53.70;;;;;;5153757;27;44681;-77
2021/12/07 11:35:17;;;;;;;2.60;1.13;;;17.50;53.70;;;;;;5153681;27;44571;-77
2021/12/07 11:37:46;;;;;;;5.32;1.25;;;17.50;53.70;;;;;;5152028;27;46588;-77
2021/12/07 11:40:17;;;;;;;2.25;0.90;;;17.50;53.60;;;;;;5143602;27;44736;-77
2021/12/07 11:42:45;;;;;;;2.03;0.85;;;17.50;53.60;;;;;;5139114;27;44708;-77
2021/12/07 11:45:18;;;;;;;1.88;0.80;;;17.50;53.50;;;;;;5149804;27;44808;-77
2021/12/07 11:47:47;;;;;;;2.78;1.20;;;17.50;53.70;;;;;;5151020;27;45252;-77
2021/12/07 11:50:23;;;;;;;2.92;1.00;;;17.40;53.50;;;;;;5152509;27;45654;-77
2021/12/07 11:52:53;;;;;;;1.25;0.70;;;17.50;53.50;;;;;;5148156;27;44916;-77
2021/12/07 11:55:21;;;;;;;3.55;0.82;;;17.40;53.50;;;;;;5142334;27;44770;-77
2021/12/07 11:57:49;;;;;;;1.50;0.80;;;17.50;53.50;;;;;;5150736;27;45284;-77
2021/12/07 12:00:21;;;;;;;3.40;1.00;;;17.50;53.50;;;;;;5153519;27;44717;-77
2021/12/07 12:02:48;;;;;;;0.95;0.68;;;17.50;53.30;;;;;;5153893;27;44697;-77
2021/12/07 12:05:15;;;;;;;2.53;1.30;;;17.50;53.10;;;;;;5150867;27;45102;-77
2021/12/07 12:07:44;;;;;;;0.90;0.50;;;17.50;53.30;;;;;;5152657;27;46858;-77
2021/12/07 12:10:13;;;;;;;1.10;0.65;;;17.50;53.40;;;;;;5148536;27;44733;-76
2021/12/07 12:12:53;;;;;;;1.95;0.80;;;17.50;53.30;;;;;;5147780;27;44803;-76
2021/12/07 12:15:46;;;;;;;2.88;0.80;;;17.50;53.30;;;;;;5141511;27;44852;-76
2021/12/07 12:18:20;;;;;;;3.58;1.02;;;17.50;53.00;;;;;;5151295;27;47231;-76
2021/12/07 12:21:02;;;;;;;2.47;1.00;;;17.50;52.70;;;;;;5138561;27;45021;-76
2021/12/07 12:23:42;;;;;;;1.52;0.70;;;17.40;52.50;;;;;;5150076;27;44714;-77
2021/12/07 12:26:12;;;;;;;3.38;0.90;;;17.50;52.60;;;;;;5141246;27;44622;-77
2021/12/07 12:28:42;;;;;;;2.22;0.98;;;17.50;52.50;;;;;;5151988;27;48176;-77
2021/12/07 12:31:12;;;;;;;2.42;0.90;;;17.50;52.50;;;;;;5152682;27;44590;-77
2021/12/07 12:33:53;;;;;;;2.00;0.60;;;17.50;52.20;;;;;;5153401;27;44680;-77
2021/12/07 12:36:22;;;;;;;3.40;0.85;;;17.50;51.80;;;;;;5134461;27;44640;-77
2021/12/07 12:38:59;;;;;;;1.08;0.60;;;17.50;51.80;;;;;;5151061;27;45576;-77
2021/12/07 12:41:26;;;;;;;4.22;0.73;;;17.50;51.80;;;;;;5149202;27;45293;-77
2021/12/07 12:43:55;;;;;;;1.55;0.60;;;17.50;51.80;;;;;;5142991;27;44697;-77
2021/12/07 12:46:26;;;;;;;1.35;0.68;;;17.50;51.80;;;;;;5144424;27;44717;-77
2021/12/07 12:48:55;;;;;;;1.92;0.75;;;17.50;51.70;;;;;;5150315;27;45446;-77
2021/12/07 12:51:23;;;;;;;2.38;0.70;;;17.50;51.70;;;;;;5151226;27;44690;-77
2021/12/07 12:53:52;;;;;;;1.50;0.70;;;17.50;51.70;;;;;;5142093;27;44731;-77
2021/12/07 12:56:23;;;;;;;1.27;0.60;;;17.50;51.70;;;;;;5148857;27;44951;-77
2021/12/07 12:58:51;;;;;;;1.27;0.63;;;17.50;51.70;;;;;;5145308;27;46602;-77
2021/12/07 13:01:26;;;;;;;2.85;0.82;;;17.50;51.70;;;;;;5140958;27;44650;-77
2021/12/07 13:04:07;;;;;;;0.60;0.47;;;17.50;51.70;;;;;;5145029;27;44795;-77
2021/12/07 13:07:02;;;;;;;2.72;0.82;;;17.50;51.70;;;;;;5152409;27;44803;-77
2021/12/07 13:09:42;;;;;;;2.67;0.80;;;17.50;51.40;;;;;;5139670;27;46618;-77
2021/12/07 13:12:13;;;;;;;1.70;0.57;;;17.60;51.80;;;;;;5146175;27;44569;-77
2021/12/07 13:14:45;;;;;;;0.45;0.40;;;17.50;51.70;;;;;;5149550;27;44907;-77
2021/12/07 13:17:23;;;;;;;1.70;0.70;;;17.50;51.00;;;;;;5150619;27;44810;-77
2021/12/07 13:20:26;;;;;;;1.02;0.63;;;17.50;51.30;;;;;;5152319;27;47256;-77
2021/12/07 13:22:56;;;;;;;1.42;0.68;;;17.50;51.20;;;;;;5145647;27;44680;-77
2021/12/07 13:25:26;;;;;;;2.85;0.63;;;17.50;51.20;;;;;;5152927;27;44672;-77
2021/12/07 13:28:19;;;;;;;1.58;0.70;;;17.50;52.20;;;;;;5151936;27;44840;-77
2021/12/07 13:30:52;;;;;;;1.88;0.77;;;17.50;50.90;;;;;;5144914;27;45248;-77
2021/12/07 13:33:22;;;;;;;1.67;0.90;;;17.50;50.70;;;;;;5151986;27;44683;-77
2021/12/07 13:35:51;;;;;;;1.30;0.50;;;17.50;50.90;;;;;;5152473;27;44626;-77
2021/12/07 13:38:21;;;;;;;1.20;0.50;;;17.50;51.10;;;;;;5147908;27;44774;-77
2021/12/07 13:40:50;;;;;;;1.30;0.77;;;17.50;51.50;;;;;;5152535;27;45021;-77
2021/12/07 13:43:38;;;;;;;1.60;0.77;;;17.50;51.70;;;;;;5151516;27;44590;-77
2021/12/07 13:46:13;;;;;;;1.65;0.75;;;17.50;51.50;;;;;;5145920;27;44593;-77
2021/12/07 13:48:43;;;;;;;1.27;0.50;;;17.60;51.20;;;;;;5151574;27;44930;-77
2021/12/07 13:51:11;;;;;;;1.08;0.60;;;17.60;50.90;;;;;;5149731;27;46720;-77
2021/12/07 13:53:39;;;;;;;1.17;0.50;;;17.60;50.60;;;;;;5153917;27;44770;-77
2021/12/07 13:56:07;;;;;;;1.33;0.60;;;17.60;50.30;;;;;;5155682;27;44732;-77
2021/12/07 13:58:54;;;;;;;1.38;0.73;;;17.50;50.10;;;;;;5154680;27;44875;-77
2021/12/07 14:01:22;;;;;;;1.38;0.63;;;17.50;50.20;;;;;;5156038;27;46995;-77
2021/12/07 14:03:50;;;;;;;2.25;0.90;;;17.50;50.40;;;;;;5156141;27;44976;-77
2021/12/07 14:06:17;;;;;;;1.13;0.60;;;17.50;50.10;;;;;;5158208;27;44750;-77
2021/12/07 14:08:44;;;;;;;1.27;0.63;;;17.50;50.40;;;;;;5153148;27;45121;-77
2021/12/07 14:11:14;;;;;;;1.55;0.50;;;17.50;50.60;;;;;;5155578;27;45489;-77
2021/12/07 14:13:42;;;;;;;0.88;0.52;;;17.50;50.70;;;;;;5154822;27;44919;-77
2021/12/07 14:16:09;;;;;;;1.73;0.93;;;17.50;50.80;;;;;;5150073;27;44855;-77
2021/12/07 14:18:38;;;;;;;0.90;0.43;;;17.50;50.70;;;;;;5153260;27;44917;-77
2021/12/07 14:21:07;;;;;;;2.38;0.80;;;17.50;50.70;;;;;;5154654;27;46785;-77
2021/12/07 14:23:37;;;;;;;2.20;0.90;;;17.50;50.70;;;;;;5149018;27;44731;-77
2021/12/07 14:26:06;;;;;;;2.03;0.65;;;17.50;50.70;;;;;;5146622;27;44919;-77
2021/12/07 14:28:37;;;;;;;2.30;0.65;;;17.50;50.70;;;;;;5154801;27;44930;-77
2021/12/07 14:31:10;;;;;;;1.05;0.50;;;17.50;50.90;;;;;;5154232;27;45232;-77
2021/12/07 14:33:43;;;;;;;1.60;0.50;;;17.50;50.70;;;;;;5154874;27;44952;-77